Terminal Aerodrome Forecast
Issued by NWS

Current Version | Previous Version | Graphics & Text | Print | Product List | Glossary On
Versions: 1 2 3 4 5 6 7 8 9 10 11 12 13 14 15 16 17 18 19 20 21 22 23 24 25 26
074
FTUS41 KRLX 061735
TAFCKB
TAF
KCKB 061735Z 0618/0718 14010G18KT 4SM -RA OVC035
     FM061900 16007KT 6SM -SHRA BR OVC015
      TEMPO 0623/0701 2SM -RA OVC007
     FM070200 20006KT P6SM OVC015
     FM071200 27005KT P6SM BKN025
     FM071700 25005KT P6SM SCT025=

USA.gov is the U.S. government's official web portal to all federal, state and local government web resources and services.